createdAt,value
2018-11-23T00:00:53.504Z,3.78
2018-11-23T00:01:53.543Z,3.82
2018-11-23T00:02:53.609Z,3.79
2018-11-23T00:03:53.627Z,3.79
2018-11-23T00:04:53.672Z,3.76
2018-11-23T00:05:53.709Z,3.76
2018-11-23T00:06:53.749Z,3.86
2018-11-23T00:07:53.818Z,3.88
2018-11-23T00:08:53.866Z,3.75
2018-11-23T00:09:53.874Z,3.78
2018-11-23T00:10:53.929Z,3.79
2018-11-23T00:11:53.992Z,3.89
2018-11-23T00:12:54.010Z,3.82
2018-11-23T00:13:54.067Z,3.79
2018-11-23T00:14:54.082Z,3.72
2018-11-23T00:15:54.128Z,3.76
2018-11-23T00:16:54.165Z,3.76
2018-11-23T00:17:54.222Z,3.65
2018-11-23T00:18:54.290Z,3.78
2018-11-23T00:19:54.293Z,3.67
2018-11-23T00:20:54.359Z,3.75
2018-11-23T00:21:54.375Z,3.79
2018-11-23T00:22:54.418Z,3.76
2018-11-23T00:23:54.459Z,3.67
2018-11-23T00:24:54.503Z,3.68
2018-11-23T00:25:54.565Z,3.64
2018-11-23T00:26:54.580Z,3.67
2018-11-23T00:27:54.628Z,3.67
2018-11-23T00:28:54.692Z,3.61
2018-11-23T00:29:54.730Z,3.76
2018-11-23T00:30:54.772Z,3.72
2018-11-23T00:31:54.788Z,3.78
2018-11-23T00:32:54.835Z,3.76
2018-11-23T00:33:54.871Z,3.76
2018-11-23T00:34:54.974Z,3.79
2018-11-23T00:35:54.976Z,3.85
2018-11-23T00:36:55.502Z,3.86
2018-11-23T00:37:55.046Z,3.85
2018-11-23T00:38:55.078Z,3.78
2018-11-23T00:39:55.122Z,3.85
2018-11-23T00:40:55.187Z,3.80
2018-11-23T00:41:55.229Z,3.80
2018-11-23T00:42:55.242Z,3.79
2018-11-23T00:43:55.286Z,3.78
2018-11-23T00:44:55.333Z,3.75
2018-11-23T00:45:55.369Z,3.76
2018-11-23T00:46:55.439Z,3.78
2018-11-23T00:47:55.450Z,3.82
2018-11-23T00:48:55.503Z,3.75
2018-11-23T00:49:55.535Z,3.90
2018-11-23T00:50:55.585Z,3.86
2018-11-23T00:51:55.640Z,3.79
2018-11-23T00:52:55.683Z,3.86
2018-11-23T00:53:55.703Z,3.94
2018-11-23T00:54:55.746Z,3.90
2018-11-23T00:55:55.786Z,3.94
2018-11-23T00:56:55.846Z,3.80
2018-11-23T00:57:55.867Z,3.86
2018-11-23T00:58:55.906Z,3.86
2018-11-23T00:59:55.983Z,3.80
2018-11-23T01:00:55.994Z,3.76
2018-11-23T01:01:56.054Z,3.88
2018-11-23T01:02:56.073Z,3.75
2018-11-23T01:03:56.125Z,3.79
2018-11-23T01:04:56.166Z,3.76
2018-11-23T01:05:56.210Z,3.76
2018-11-23T01:06:56.327Z,3.78
2018-11-23T01:07:56.290Z,3.72
2018-11-23T01:08:56.353Z,3.76
2018-11-23T01:09:56.369Z,3.78
2018-11-23T01:10:56.416Z,3.78
2018-11-23T01:11:56.459Z,3.71
2018-11-23T01:12:56.517Z,3.76
2018-11-23T01:13:56.530Z,3.72
2018-11-23T01:14:56.575Z,3.78
2018-11-23T01:15:56.616Z,3.70
2018-11-23T01:16:56.665Z,3.75
2018-11-23T01:17:56.721Z,3.72
2018-11-23T01:18:56.744Z,3.76
2018-11-23T01:19:56.782Z,3.82
2018-11-23T01:20:56.823Z,3.79
2018-11-23T01:21:56.864Z,3.76
2018-11-23T01:22:56.931Z,3.76
2018-11-23T01:23:56.970Z,3.76
2018-11-23T01:24:56.989Z,3.79
2018-11-23T01:25:57.032Z,3.82
2018-11-23T01:26:57.074Z,3.64
2018-11-23T01:27:57.114Z,3.64
2018-11-23T01:28:57.176Z,3.53
2018-11-23T01:29:57.201Z,3.57
2018-11-23T01:30:57.260Z,3.60
2018-11-23T01:31:57.284Z,3.54
2018-11-23T01:32:57.329Z,3.50
2018-11-23T01:33:57.385Z,3.49
2018-11-23T01:34:57.414Z,3.49
2018-11-23T01:35:57.471Z,3.50
2018-11-23T01:36:57.488Z,3.43
2018-11-23T01:37:57.532Z,3.49
2018-11-23T01:38:57.668Z,3.49
2018-11-23T01:39:57.614Z,3.47
2018-11-23T01:40:57.677Z,3.53
2018-11-23T01:41:57.695Z,3.53
2018-11-23T01:42:57.742Z,3.49
2018-11-23T01:43:57.786Z,3.53
2018-11-23T01:44:57.821Z,3.57
2018-11-23T01:45:57.936Z,3.44
2018-11-23T01:46:57.900Z,3.46
2018-11-23T01:47:57.950Z,3.53
2018-11-23T01:48:57.980Z,3.49
2018-11-23T01:49:58.033Z,3.52
2018-11-23T01:50:58.093Z,3.54
2018-11-23T01:51:58.108Z,3.39
2018-11-23T01:52:58.154Z,3.40
2018-11-23T01:53:58.209Z,3.36
2018-11-23T01:54:58.230Z,3.36
2018-11-23T01:55:58.270Z,3.28
2018-11-23T01:56:58.312Z,3.36
2018-11-23T01:57:58.362Z,3.30
2018-11-23T01:58:58.435Z,3.36
2018-11-23T01:59:58.444Z,3.31
2018-11-23T02:00:58.499Z,3.40
2018-11-23T02:01:58.546Z,3.40
2018-11-23T02:02:58.567Z,3.39
2018-11-23T02:03:58.625Z,3.34
2018-11-23T02:04:58.641Z,3.43
2018-11-23T02:05:58.686Z,3.39
2018-11-23T02:06:58.754Z,3.34
2018-11-23T02:07:58.765Z,3.40
2018-11-23T02:08:58.850Z,3.31
2018-11-23T02:09:58.847Z,3.42
2018-11-23T02:10:58.891Z,3.34
2018-11-23T02:11:58.928Z,3.44
2018-11-23T02:12:58.972Z,3.34
2018-11-23T02:13:59.040Z,3.30
2018-11-23T02:14:59.056Z,3.42
2018-11-23T02:15:59.094Z,3.39
2018-11-23T02:16:59.138Z,3.40
2018-11-23T02:17:59.176Z,3.36
2018-11-23T02:18:59.240Z,3.34
2018-11-23T02:19:59.260Z,3.47
2018-11-23T02:20:59.304Z,3.44
2018-11-23T02:21:59.348Z,3.49
2018-11-23T02:22:59.418Z,3.40
2018-11-23T02:23:59.425Z,3.46
2018-11-23T02:24:59.495Z,3.34
2018-11-23T02:25:59.509Z,3.33
2018-11-23T02:26:59.573Z,3.36
2018-11-23T02:27:59.613Z,3.34
2018-11-23T02:28:59.632Z,3.33
2018-11-23T02:29:59.679Z,3.40
2018-11-23T02:30:59.715Z,3.34
2018-11-23T02:31:59.753Z,3.36
2018-11-23T02:32:59.820Z,3.33
2018-11-23T02:33:59.865Z,3.34
2018-11-23T02:34:59.903Z,3.39
2018-11-23T02:35:59.918Z,3.39
2018-11-23T02:36:59.965Z,3.53
2018-11-23T02:38:00.030Z,3.36
2018-11-23T02:39:00.046Z,3.39
2018-11-23T02:40:00.089Z,3.39
2018-11-23T02:41:00.270Z,3.42
2018-11-23T02:42:00.165Z,3.33
2018-11-23T02:43:00.225Z,3.31
2018-11-23T02:44:00.249Z,3.43
2018-11-23T02:45:00.291Z,3.34
2018-11-23T02:46:00.356Z,3.40
2018-11-23T02:47:00.371Z,3.42
2018-11-23T02:48:00.418Z,3.39
2018-11-23T02:49:00.457Z,3.42
2018-11-23T02:50:00.505Z,3.39
2018-11-23T02:51:00.561Z,3.43
2018-11-23T02:52:00.579Z,3.39
2018-11-23T02:53:00.642Z,3.52
2018-11-23T02:54:00.660Z,3.40
2018-11-23T02:55:00.702Z,3.53
2018-11-23T02:56:00.754Z,3.44
2018-11-23T02:57:00.785Z,3.49
2018-11-23T02:58:00.864Z,3.49
2018-11-23T02:59:00.891Z,3.58
2018-11-23T03:00:00.917Z,3.60
2018-11-23T03:01:00.963Z,3.50
2018-11-23T03:02:00.995Z,3.43
2018-11-23T03:03:01.061Z,3.53
2018-11-23T03:04:01.077Z,3.61
2018-11-23T03:05:01.117Z,3.47
2018-11-23T03:06:01.229Z,3.47
2018-11-23T03:07:01.220Z,3.62
2018-11-23T03:08:01.244Z,3.58
2018-11-23T03:09:01.282Z,3.50
2018-11-23T03:10:01.322Z,3.58
2018-11-23T03:11:01.367Z,3.60
2018-11-23T03:12:01.440Z,3.53
2018-11-23T03:13:01.566Z,3.62
2018-11-23T03:14:01.487Z,3.60
2018-11-23T03:15:01.536Z,3.54
2018-11-23T03:16:01.571Z,3.57
2018-11-23T03:17:01.614Z,3.54
2018-11-23T03:18:01.682Z,3.52
2018-11-23T03:19:01.715Z,3.54
2018-11-23T03:20:01.737Z,3.62
2018-11-23T03:21:01.777Z,3.68
2018-11-23T03:22:01.816Z,3.54
2018-11-23T03:23:01.857Z,3.68
2018-11-23T03:24:01.922Z,3.53
2018-11-23T03:25:01.966Z,3.53
2018-11-23T03:26:03.695Z,3.57
2018-11-23T03:27:02.029Z,3.64
2018-11-23T03:28:02.073Z,3.61
2018-11-23T03:29:02.107Z,3.65
2018-11-23T03:30:02.174Z,3.62
2018-11-23T03:31:02.209Z,3.71
2018-11-23T03:32:02.249Z,3.75
2018-11-23T03:33:02.274Z,3.79
2018-11-23T03:34:02.318Z,3.79
2018-11-23T03:35:02.355Z,3.76
2018-11-23T03:36:02.418Z,3.79
2018-11-23T03:37:02.438Z,3.76
2018-11-23T03:38:02.529Z,3.82
2018-11-23T03:39:02.517Z,3.80
2018-11-23T03:40:02.567Z,3.79
2018-11-23T03:41:02.629Z,3.72
2018-11-23T03:42:02.642Z,3.76
2018-11-23T03:43:02.688Z,3.76
2018-11-23T03:44:02.723Z,3.78
2018-11-23T03:45:02.768Z,3.75
2018-11-23T03:46:02.830Z,3.72
2018-11-23T03:47:02.851Z,3.83
2018-11-23T03:48:02.894Z,3.90
2018-11-23T03:49:02.970Z,3.82
2018-11-23T03:50:02.976Z,3.79
2018-11-23T03:51:03.032Z,3.80
2018-11-23T03:52:03.059Z,3.79
2018-11-23T03:53:03.103Z,3.79
2018-11-23T03:54:03.696Z,3.79
2018-11-23T03:55:03.192Z,3.82
2018-11-23T03:56:03.250Z,3.82
2018-11-23T03:57:03.268Z,3.83
2018-11-23T03:58:03.326Z,3.90
2018-11-23T03:59:03.361Z,3.98
2018-11-23T04:00:03.413Z,3.96
2018-11-23T04:01:03.534Z,3.90
2018-11-23T04:02:03.475Z,3.94
2018-11-23T04:03:03.532Z,3.98
2018-11-23T04:04:03.557Z,3.92
2018-11-23T04:05:03.623Z,3.94
2018-11-23T04:06:03.645Z,3.85
2018-11-23T04:07:03.683Z,3.96
2018-11-23T04:08:04.218Z,3.88
2018-11-23T04:09:03.787Z,3.94
2018-11-23T04:10:03.815Z,4.04
2018-11-23T04:11:03.849Z,3.98
2018-11-23T04:12:03.901Z,3.90
2018-11-23T04:13:03.932Z,3.86
2018-11-23T04:14:03.994Z,3.96
2018-11-23T04:15:04.019Z,3.92
2018-11-23T04:16:04.055Z,3.92
2018-11-23T04:17:04.110Z,3.88
2018-11-23T04:18:04.139Z,3.89
2018-11-23T04:19:04.211Z,3.94
2018-11-23T04:20:04.222Z,3.80
2018-11-23T04:21:04.266Z,3.88
2018-11-23T04:22:04.327Z,3.85
2018-11-23T04:23:04.358Z,3.88
2018-11-23T04:24:04.400Z,3.97
2018-11-23T04:25:04.430Z,3.90
2018-11-23T04:26:04.493Z,3.90
2018-11-23T04:27:04.536Z,3.96
2018-11-23T04:28:04.553Z,3.86
2018-11-23T04:29:04.617Z,3.85
2018-11-23T04:30:04.638Z,3.86
2018-11-23T04:31:04.701Z,3.79
2018-11-23T04:32:04.716Z,3.85
2018-11-23T04:33:04.823Z,3.89
2018-11-23T04:34:04.806Z,3.82
2018-11-23T04:35:04.844Z,3.94
2018-11-23T04:36:04.912Z,3.86
2018-11-23T04:37:04.936Z,3.86
2018-11-23T04:38:04.972Z,3.75
2018-11-23T04:39:05.011Z,3.78
2018-11-23T04:40:05.056Z,3.79
2018-11-23T04:41:05.696Z,3.79
2018-11-23T04:42:05.131Z,3.76
2018-11-23T04:43:05.177Z,3.76
2018-11-23T04:44:05.220Z,3.79
2018-11-23T04:45:05.260Z,3.80
2018-11-23T04:46:05.321Z,3.70
2018-11-23T04:47:05.349Z,3.78
2018-11-23T04:48:05.383Z,3.78
2018-11-23T04:49:05.425Z,3.75
2018-11-23T04:50:05.465Z,3.78
2018-11-23T04:51:05.526Z,3.75
2018-11-23T04:52:05.547Z,3.75
2018-11-23T04:53:05.596Z,3.80
2018-11-23T04:54:05.653Z,3.75
2018-11-23T04:55:05.678Z,3.78
2018-11-23T04:56:05.714Z,3.79
2018-11-23T04:57:05.773Z,3.78
2018-11-23T04:58:05.840Z,3.80
2018-11-23T04:59:05.839Z,3.78
2018-11-23T05:00:05.880Z,3.75
2018-11-23T05:01:05.924Z,3.79
2018-11-23T05:02:05.961Z,3.76
2018-11-23T05:03:06.022Z,3.80
2018-11-23T05:04:06.048Z,3.72
2018-11-23T05:05:06.712Z,3.79
2018-11-23T05:06:06.124Z,3.78
2018-11-23T05:07:06.166Z,3.78
2018-11-23T05:08:06.244Z,3.72
2018-11-23T05:09:06.252Z,3.80
2018-11-23T05:10:06.293Z,3.76
2018-11-23T05:11:06.340Z,3.79
2018-11-23T05:12:06.405Z,3.60
2018-11-23T05:13:06.444Z,3.58
2018-11-23T05:14:06.458Z,3.61
2018-11-23T05:15:06.498Z,3.65
2018-11-23T05:16:06.550Z,3.65
2018-11-23T05:17:06.580Z,3.58
2018-11-23T05:18:06.646Z,3.64
2018-11-23T05:19:06.677Z,3.64
2018-11-23T05:20:06.705Z,3.57
2018-11-23T05:21:06.754Z,3.57
2018-11-23T05:22:06.791Z,3.57
2018-11-23T05:23:06.848Z,3.53
2018-11-23T05:24:06.900Z,3.52
2018-11-23T05:25:06.911Z,3.72
2018-11-23T05:26:06.952Z,3.61
2018-11-23T05:27:07.000Z,3.67
2018-11-23T05:28:07.120Z,3.60
2018-11-23T05:29:07.099Z,3.70
2018-11-23T05:30:07.158Z,3.65
2018-11-23T05:31:07.163Z,3.62
2018-11-23T05:32:07.201Z,3.54
2018-11-23T05:33:07.248Z,3.57
2018-11-23T05:34:07.298Z,3.62
2018-11-23T05:35:07.322Z,3.58
2018-11-23T05:36:07.370Z,3.58
2018-11-23T05:37:07.403Z,3.50
2018-11-23T05:38:07.445Z,3.61
2018-11-23T05:39:07.514Z,3.62
2018-11-23T05:40:07.532Z,3.49
2018-11-23T05:41:07.568Z,3.52
2018-11-23T05:42:07.626Z,3.53
2018-11-23T05:43:07.650Z,3.49
2018-11-23T05:44:07.721Z,3.46
2018-11-23T05:45:07.734Z,3.40
2018-11-23T05:46:07.777Z,3.39
2018-11-23T05:47:07.837Z,3.39
2018-11-23T05:48:07.863Z,3.36
2018-11-23T05:49:07.898Z,3.42
2018-11-23T05:50:07.946Z,3.47
2018-11-23T05:51:07.982Z,3.39
2018-11-23T05:52:08.038Z,3.36
2018-11-23T05:53:08.082Z,3.50
2018-11-23T05:54:08.110Z,3.52
2018-11-23T05:55:08.144Z,3.33
2018-11-23T05:56:08.193Z,3.49
2018-11-23T05:57:08.707Z,3.36
2018-11-23T05:58:08.283Z,3.42
2018-11-23T05:59:08.326Z,3.36
2018-11-23T06:00:08.473Z,3.31
2018-11-23T06:01:08.395Z,3.25
2018-11-23T06:02:08.448Z,3.27
2018-11-23T06:03:08.472Z,3.16
2018-11-23T06:04:08.510Z,3.16
2018-11-23T06:05:08.558Z,3.15
2018-11-23T06:06:08.598Z,3.13
2018-11-23T06:07:08.655Z,3.10
2018-11-23T06:08:08.680Z,3.21
2018-11-23T06:09:08.718Z,3.18
2018-11-23T06:10:08.754Z,3.18
2018-11-23T06:11:08.798Z,3.20
2018-11-23T06:12:08.857Z,3.21
2018-11-23T06:13:08.895Z,3.18
2018-11-23T06:14:08.919Z,3.15
2018-11-23T06:15:08.970Z,3.10
2018-11-23T06:16:09.006Z,3.10
2018-11-23T06:17:09.075Z,3.15
2018-11-23T06:18:09.091Z,3.10
2018-11-23T06:19:09.126Z,3.10
2018-11-23T06:20:09.164Z,3.05
2018-11-23T06:21:09.208Z,3.05
2018-11-23T06:22:09.266Z,3.12
2018-11-23T06:23:09.305Z,3.06
2018-11-23T06:24:09.327Z,3.05
2018-11-23T06:25:09.402Z,2.98
2018-11-23T06:26:09.403Z,3.03
2018-11-23T06:27:09.451Z,3.03
2018-11-23T06:28:09.519Z,2.95
2018-11-23T06:29:09.531Z,3.00
2018-11-23T06:30:09.573Z,2.95
2018-11-23T06:31:09.615Z,3.00
2018-11-23T06:32:09.708Z,3.03
2018-11-23T06:33:09.719Z,2.95
2018-11-23T06:34:09.761Z,2.97
2018-11-23T06:35:09.780Z,3.06
2018-11-23T06:36:09.825Z,3.02
2018-11-23T06:37:09.858Z,3.00
2018-11-23T06:38:09.896Z,3.02
2018-11-23T06:39:09.959Z,3.00
2018-11-23T06:40:09.976Z,2.97
2018-11-23T06:41:10.442Z,3.02
2018-11-23T06:42:10.058Z,2.94
2018-11-23T06:43:10.099Z,3.03
2018-11-23T06:44:10.175Z,2.95
2018-11-23T06:45:10.179Z,2.98
2018-11-23T06:46:10.222Z,2.97
2018-11-23T06:47:10.262Z,2.89
2018-11-23T06:48:10.302Z,2.91
2018-11-23T06:49:10.381Z,2.94
2018-11-23T06:50:10.393Z,2.85
2018-11-23T06:51:10.429Z,2.87
2018-11-23T06:52:10.462Z,2.88
2018-11-23T06:53:10.509Z,2.87
2018-11-23T06:54:14.368Z,2.89
2018-11-23T06:55:10.587Z,2.92
2018-11-23T06:56:10.626Z,2.98
2018-11-23T06:57:10.680Z,2.98
2018-11-23T06:58:10.706Z,3.00
2018-11-23T06:59:10.766Z,3.02
2018-11-23T07:00:10.799Z,2.94
2018-11-23T07:01:10.830Z,2.97
2018-11-23T07:02:10.870Z,2.97
2018-11-23T07:03:10.934Z,3.02
2018-11-23T07:04:10.951Z,2.97
2018-11-23T07:05:11.008Z,2.97
2018-11-23T07:06:11.044Z,2.92
2018-11-23T07:07:11.085Z,2.89
2018-11-23T07:08:11.157Z,2.92
2018-11-23T07:09:11.161Z,2.94
2018-11-23T07:10:11.196Z,2.97
2018-11-23T07:11:11.236Z,2.97
2018-11-23T07:12:11.276Z,2.94
2018-11-23T07:13:11.351Z,3.05
2018-11-23T07:14:11.357Z,3.06
2018-11-23T07:15:11.398Z,2.95
2018-11-23T07:16:11.452Z,2.94
2018-11-23T07:17:11.482Z,3.02
2018-11-23T07:18:11.552Z,2.98
2018-11-23T07:19:11.556Z,2.95
2018-11-23T07:20:11.603Z,2.97
2018-11-23T07:21:11.642Z,3.00
2018-11-23T07:22:11.708Z,2.91
2018-11-23T07:23:11.724Z,2.89
2018-11-23T07:24:11.797Z,2.97
2018-11-23T07:25:14.493Z,2.94
2018-11-23T07:26:11.871Z,2.95
2018-11-23T07:27:11.889Z,2.95
2018-11-23T07:28:15.639Z,2.98
2018-11-23T07:29:11.993Z,2.94
2018-11-23T07:30:12.000Z,2.97
2018-11-23T07:31:12.059Z,2.98
2018-11-23T07:32:12.091Z,2.94
2018-11-23T07:33:12.130Z,3.00
2018-11-23T07:34:12.190Z,2.89
2018-11-23T07:35:12.235Z,2.92
2018-11-23T07:36:12.252Z,2.94
2018-11-23T07:37:12.296Z,2.92
2018-11-23T07:38:12.526Z,2.89
2018-11-23T07:39:12.381Z,2.97
2018-11-23T07:40:12.409Z,2.92
2018-11-23T07:41:12.452Z,2.88
2018-11-23T07:42:12.505Z,2.87
2018-11-23T07:43:12.562Z,2.88
2018-11-23T07:44:12.581Z,2.81
2018-11-23T07:45:12.636Z,2.89
2018-11-23T07:46:12.654Z,2.88
2018-11-23T07:47:12.696Z,2.91
2018-11-23T07:48:12.766Z,2.94
2018-11-23T07:49:12.804Z,2.92
2018-11-23T07:50:12.818Z,2.92
2018-11-23T07:51:12.868Z,2.95
2018-11-23T07:52:12.900Z,2.95
2018-11-23T07:53:12.939Z,3.00
2018-11-23T07:54:13.000Z,2.97
2018-11-23T07:55:13.018Z,3.05
2018-11-23T07:56:13.104Z,3.02
2018-11-23T07:57:13.108Z,3.10
2018-11-23T07:58:13.149Z,3.18
2018-11-23T07:59:13.180Z,3.13
2018-11-23T08:00:13.222Z,3.18
2018-11-23T08:01:13.285Z,3.30
2018-11-23T08:02:13.307Z,3.25
2018-11-23T08:03:13.347Z,3.31
2018-11-23T08:04:13.392Z,3.31
2018-11-23T08:05:13.441Z,3.33
2018-11-23T08:06:13.497Z,3.28
2018-11-23T08:07:13.526Z,3.28
2018-11-23T08:08:13.558Z,3.40
2018-11-23T08:09:13.592Z,3.36
2018-11-23T08:10:13.705Z,3.39
2018-11-23T08:11:13.708Z,3.36
2018-11-23T08:12:13.716Z,3.39
2018-11-23T08:13:13.766Z,3.33
2018-11-23T08:14:13.800Z,3.27
2018-11-23T08:15:13.841Z,3.21
2018-11-23T08:16:13.928Z,3.15
2018-11-23T08:17:13.950Z,3.12
2018-11-23T08:18:13.964Z,3.10
2018-11-23T08:19:14.004Z,3.02
2018-11-23T08:20:14.043Z,2.98
2018-11-23T08:21:14.109Z,3.03
2018-11-23T08:22:14.129Z,3.18
2018-11-23T08:23:14.189Z,3.12
2018-11-23T08:24:14.207Z,3.16
2018-11-23T08:25:14.250Z,3.18
2018-11-23T08:26:14.303Z,3.20
2018-11-23T08:27:14.355Z,3.16
2018-11-23T08:28:14.370Z,3.09
2018-11-23T08:29:14.417Z,3.16
2018-11-23T08:30:14.455Z,3.20
2018-11-23T08:31:14.500Z,3.16
2018-11-23T08:32:14.555Z,3.18
2018-11-23T08:33:14.603Z,3.31
2018-11-23T08:34:14.621Z,3.31
2018-11-23T08:35:14.665Z,3.27
2018-11-23T08:36:15.182Z,3.34
2018-11-23T08:37:14.757Z,3.42
2018-11-23T08:38:14.861Z,3.42
2018-11-23T08:39:14.855Z,3.40
2018-11-23T08:40:14.887Z,3.50
2018-11-23T08:41:14.908Z,3.50
2018-11-23T08:42:14.952Z,3.61
2018-11-23T08:43:14.992Z,3.79
2018-11-23T08:44:15.031Z,3.80
2018-11-23T08:45:15.094Z,4.00
2018-11-23T08:46:15.143Z,4.00
2018-11-23T08:47:15.156Z,4.28
2018-11-23T08:48:15.206Z,4.67
2018-11-23T08:49:15.644Z,4.92
2018-11-23T08:50:15.286Z,5.16
2018-11-23T08:51:15.344Z,5.22
2018-11-23T08:52:15.363Z,5.32
2018-11-23T08:53:15.421Z,5.19
2018-11-23T08:54:16.181Z,5.13
2018-11-23T08:55:16.703Z,4.92
2018-11-23T08:56:16.184Z,4.75
2018-11-23T08:57:15.575Z,4.61
2018-11-23T08:58:15.623Z,4.37
2018-11-23T08:59:15.659Z,4.39
2018-11-23T09:00:15.700Z,4.29
2018-11-23T09:01:16.681Z,4.37
2018-11-23T09:02:16.681Z,4.47
2018-11-23T09:03:15.855Z,4.46
2018-11-23T09:04:15.874Z,4.72
2018-11-23T09:05:16.681Z,4.96
2018-11-23T09:06:15.958Z,5.32
2018-11-23T09:07:16.001Z,5.67
2018-11-23T09:08:16.073Z,5.73
2018-11-23T09:09:16.091Z,5.73
2018-11-23T09:10:16.131Z,5.75
2018-11-23T09:11:16.174Z,5.74
2018-11-23T09:12:16.228Z,5.71
2018-11-23T09:13:16.293Z,5.66
2018-11-23T09:14:16.310Z,5.59
2018-11-23T09:15:17.437Z,5.46
2018-11-23T09:16:16.391Z,5.35
2018-11-23T09:17:16.434Z,5.38
2018-11-23T09:18:16.509Z,5.50
2018-11-23T09:19:16.670Z,5.82
2018-11-23T09:20:16.571Z,6.06
2018-11-23T09:21:16.618Z,6.28
2018-11-23T09:22:23.202Z,6.63
2018-11-23T09:23:16.705Z,6.87
2018-11-23T09:24:16.772Z,7.12
2018-11-23T09:25:16.792Z,7.17
2018-11-23T09:26:16.881Z,7.26
2018-11-23T09:27:16.886Z,7.53
2018-11-23T09:28:16.927Z,7.44
2018-11-23T09:29:17.000Z,7.60
2018-11-23T09:30:17.018Z,7.77
2018-11-23T09:31:17.073Z,8.08
2018-11-23T09:32:17.116Z,8.26
2018-11-23T09:33:17.159Z,8.20
2018-11-23T09:34:17.235Z,8.32
2018-11-23T09:35:17.265Z,8.33
2018-11-23T09:36:17.350Z,8.30
2018-11-23T09:37:17.356Z,8.21
2018-11-23T09:38:17.397Z,8.26
2018-11-23T09:39:17.459Z,8.29
2018-11-23T09:40:17.492Z,8.44
2018-11-23T09:41:17.561Z,8.57
2018-11-23T09:42:17.617Z,8.73
2018-11-23T09:43:17.639Z,8.65
2018-11-23T09:44:17.701Z,8.73
2018-11-23T09:45:17.735Z,8.53
2018-11-23T09:46:17.804Z,8.54
2018-11-23T09:47:17.841Z,8.32
2018-11-23T09:48:17.903Z,8.33
2018-11-23T09:49:17.947Z,8.45
2018-11-23T09:50:17.983Z,8.35
2018-11-23T09:51:18.054Z,8.20
2018-11-23T09:52:18.086Z,7.96
2018-11-23T09:53:18.148Z,7.77
2018-11-23T09:54:18.186Z,7.60
2018-11-23T09:55:18.231Z,7.66
2018-11-23T09:56:18.301Z,7.42
2018-11-23T09:57:18.340Z,7.15
2018-11-23T09:58:18.377Z,6.90
2018-11-23T09:59:18.453Z,6.84
2018-11-23T10:00:18.490Z,6.89
2018-11-23T10:01:18.525Z,6.69
2018-11-23T10:02:18.563Z,6.72
2018-11-23T10:03:18.741Z,6.62
2018-11-23T10:04:18.691Z,6.66
2018-11-23T10:05:18.707Z,6.59
2018-11-23T10:06:18.755Z,6.83
2018-11-23T10:07:18.805Z,6.87
2018-11-23T10:08:18.865Z,6.97
2018-11-23T10:09:18.893Z,7.09
2018-11-23T10:10:19.031Z,7.17
2018-11-23T10:11:19.010Z,7.19
2018-11-23T10:12:19.044Z,7.17
2018-11-23T10:13:19.110Z,7.27
2018-11-23T10:14:19.132Z,7.27
2018-11-23T10:15:19.185Z,7.29
2018-11-23T10:16:19.221Z,7.26
2018-11-23T10:17:19.352Z,7.35
2018-11-23T10:18:19.338Z,7.29
2018-11-23T10:19:19.362Z,7.24
2018-11-23T10:20:19.438Z,7.19
2018-11-23T10:21:19.459Z,7.13
2018-11-23T10:22:19.515Z,7.02
2018-11-23T10:23:19.554Z,7.01
2018-11-23T10:24:19.621Z,6.91
2018-11-23T10:25:19.668Z,7.07
2018-11-23T10:26:19.707Z,7.07
2018-11-23T10:27:19.742Z,6.97
2018-11-23T10:28:19.806Z,6.87
2018-11-23T10:29:19.856Z,6.80
2018-11-23T10:30:19.875Z,6.76
2018-11-23T10:31:19.925Z,6.62
2018-11-23T10:32:19.962Z,6.66
2018-11-23T10:33:20.015Z,6.63
2018-11-23T10:34:20.085Z,6.62
2018-11-23T10:35:20.102Z,6.56
2018-11-23T10:36:20.157Z,6.62
2018-11-23T10:37:20.215Z,6.48
2018-11-23T10:38:20.239Z,6.35
2018-11-23T10:39:20.294Z,6.33
2018-11-23T10:40:20.331Z,6.36
2018-11-23T10:41:20.387Z,6.33
2018-11-23T10:42:20.454Z,6.30
2018-11-23T10:43:20.469Z,6.30
2018-11-23T10:44:20.513Z,6.35
2018-11-23T10:45:20.557Z,6.41
2018-11-23T10:46:20.612Z,6.44
2018-11-23T10:47:20.717Z,6.51
2018-11-23T10:48:20.710Z,6.44
2018-11-23T10:49:20.757Z,6.35
2018-11-23T10:50:20.784Z,6.38
2018-11-23T10:51:20.862Z,6.38
2018-11-23T10:52:20.918Z,6.33
2018-11-23T10:53:20.953Z,6.11
2018-11-23T10:54:20.971Z,6.09
2018-11-23T10:55:21.009Z,6.06
2018-11-23T10:56:21.052Z,5.96
2018-11-23T10:57:21.123Z,5.88
2018-11-23T10:58:21.160Z,5.91
2018-11-23T10:59:21.187Z,5.85
2018-11-23T11:00:21.255Z,5.89
2018-11-23T11:01:21.279Z,5.86
2018-11-23T11:02:21.328Z,5.88
2018-11-23T11:03:21.394Z,5.88
2018-11-23T11:04:21.409Z,5.85
2018-11-23T11:05:21.471Z,5.86
2018-11-23T11:06:21.502Z,5.75
2018-11-23T11:07:21.543Z,5.88
2018-11-23T11:08:21.618Z,5.86
2018-11-23T11:09:21.657Z,5.91
2018-11-23T11:10:21.685Z,5.96
2018-11-23T11:11:21.723Z,5.91
2018-11-23T11:12:22.497Z,6.00
2018-11-23T11:13:21.809Z,6.11
2018-11-23T11:14:21.886Z,5.98
2018-11-23T11:15:21.924Z,6.11
2018-11-23T11:16:21.966Z,5.93
2018-11-23T11:17:21.988Z,5.98
2018-11-23T11:18:22.041Z,6.01
2018-11-23T11:19:22.098Z,6.09
2018-11-23T11:20:22.143Z,6.04
2018-11-23T11:21:22.164Z,6.11
2018-11-23T11:22:22.213Z,6.16
2018-11-23T11:23:22.261Z,6.04
2018-11-23T11:24:22.335Z,6.11
2018-11-23T11:25:22.353Z,6.14
2018-11-23T11:26:22.439Z,6.22
2018-11-23T11:27:22.431Z,6.19
2018-11-23T11:28:22.475Z,6.36
2018-11-23T11:29:23.500Z,6.38
2018-11-23T11:30:22.565Z,6.48
2018-11-23T11:31:22.635Z,6.58
2018-11-23T11:32:22.676Z,6.66
2018-11-23T11:33:22.704Z,6.68
2018-11-23T11:34:22.750Z,6.63
2018-11-23T11:35:22.788Z,6.68
2018-11-23T11:36:22.834Z,6.72
2018-11-23T11:37:22.911Z,6.77
2018-11-23T11:38:22.943Z,6.86
2018-11-23T11:39:22.968Z,6.84
2018-11-23T11:40:23.101Z,6.90
2018-11-23T11:41:23.073Z,6.89
2018-11-23T11:42:23.130Z,6.94
2018-11-23T11:43:23.150Z,6.84
2018-11-23T11:44:23.205Z,6.89
2018-11-23T11:45:23.252Z,6.80
2018-11-23T11:46:23.288Z,6.80
2018-11-23T11:47:23.356Z,6.91
2018-11-23T11:48:23.382Z,6.86
2018-11-23T11:49:23.416Z,6.79
2018-11-23T11:50:23.472Z,6.66
2018-11-23T11:51:23.510Z,6.59
2018-11-23T11:52:23.584Z,6.72
2018-11-23T11:53:23.601Z,6.62
2018-11-23T11:54:23.638Z,6.68
2018-11-23T11:55:23.682Z,6.38
2018-11-23T11:56:23.747Z,6.38
2018-11-23T11:57:23.771Z,6.22
2018-11-23T11:58:23.817Z,6.07
2018-11-23T11:59:23.885Z,6.13
2018-11-23T12:00:23.915Z,6.09
2018-11-23T12:01:23.975Z,6.32
2018-11-23T12:02:23.993Z,6.29
2018-11-23T12:03:24.077Z,6.43
2018-11-23T12:04:24.108Z,6.32
2018-11-23T12:05:24.153Z,6.06
2018-11-23T12:06:24.212Z,6.03
2018-11-23T12:07:24.234Z,6.04
2018-11-23T12:08:24.276Z,6.07
2018-11-23T12:09:24.314Z,6.18
2018-11-23T12:10:24.408Z,6.40
2018-11-23T12:11:24.410Z,6.41
2018-11-23T12:12:24.450Z,6.50
2018-11-23T12:13:24.504Z,6.30
2018-11-23T12:14:24.556Z,6.40
2018-11-23T12:15:24.581Z,6.36
2018-11-23T12:16:24.671Z,6.48
2018-11-23T12:17:24.696Z,6.43
2018-11-23T12:18:24.712Z,6.47
2018-11-23T12:19:24.756Z,6.50
2018-11-23T12:20:24.797Z,6.50
2018-11-23T12:21:24.875Z,6.44
2018-11-23T12:22:24.894Z,6.48
2018-11-23T12:23:24.931Z,6.48
2018-11-23T12:24:24.987Z,6.50
2018-11-23T12:25:25.031Z,6.47
2018-11-23T12:26:25.088Z,6.43
2018-11-23T12:27:25.108Z,6.51
2018-11-23T12:28:25.156Z,6.48
2018-11-23T12:29:25.201Z,6.54
2018-11-23T12:30:25.254Z,6.50
2018-11-23T12:31:25.312Z,6.53
2018-11-23T12:32:25.349Z,6.63
2018-11-23T12:33:25.376Z,6.66
2018-11-23T12:34:25.424Z,6.72
2018-11-23T12:35:25.475Z,6.63
2018-11-23T12:36:25.531Z,6.65
2018-11-23T12:37:25.562Z,6.66
2018-11-23T12:38:25.617Z,6.66
2018-11-23T12:39:25.654Z,6.69
2018-11-23T12:40:25.701Z,6.77
2018-11-23T12:41:25.762Z,6.71
2018-11-23T12:42:25.840Z,6.68
2018-11-23T12:43:25.842Z,6.62
2018-11-23T12:44:25.867Z,6.51
2018-11-23T12:45:25.919Z,6.46
2018-11-23T12:46:25.971Z,6.51
2018-11-23T12:47:26.008Z,6.61
2018-11-23T12:48:26.063Z,6.62
2018-11-23T12:49:26.094Z,6.61
2018-11-23T12:50:26.136Z,6.65
2018-11-23T12:51:26.183Z,6.71
2018-11-23T12:52:26.241Z,6.81
2018-11-23T12:53:26.285Z,6.79
2018-11-23T12:54:26.313Z,6.83
2018-11-23T12:55:26.361Z,6.86
2018-11-23T12:56:26.397Z,6.79
2018-11-23T12:57:26.442Z,6.71
2018-11-23T12:58:26.513Z,6.72
2018-11-23T12:59:26.539Z,6.72
2018-11-23T13:00:26.577Z,6.66
2018-11-23T13:01:26.642Z,6.68
2018-11-23T13:02:26.691Z,6.71
2018-11-23T13:03:26.753Z,6.79
2018-11-23T13:04:26.796Z,6.72
2018-11-23T13:05:26.800Z,6.76
2018-11-23T13:06:26.839Z,6.62
2018-11-23T13:07:26.905Z,6.63
2018-11-23T13:08:26.943Z,6.62
2018-11-23T13:09:26.999Z,6.66
2018-11-23T13:10:27.039Z,6.62
2018-11-23T13:11:27.102Z,6.53
2018-11-23T13:12:27.124Z,6.61
2018-11-23T13:13:27.157Z,6.56
2018-11-23T13:14:27.209Z,6.47
2018-11-23T13:15:27.250Z,6.48
2018-11-23T13:16:27.317Z,6.41
2018-11-23T13:17:27.337Z,6.38
2018-11-23T13:18:27.413Z,6.36
2018-11-23T13:19:27.478Z,6.33